sensor_id;sensor_type;location;lat;lon;timestamp;temperature;humidity
14471;DHT22;7321;50.802;4.336;2023-07-20T00:00:53;18.90;99.90
14471;DHT22;7321;50.802;4.336;2023-07-20T00:03:20;19.00;99.90
14471;DHT22;7321;50.802;4.336;2023-07-20T00:05:51;18.90;99.90
14471;DHT22;7321;50.802;4.336;2023-07-20T00:08:17;18.90;99.90
14471;DHT22;7321;50.802;4.336;2023-07-20T00:10:44;19.00;99.90
14471;DHT22;7321;50.802;4.336;2023-07-20T00:13:13;19.00;99.90
14471;DHT22;7321;50.802;4.336;2023-07-20T00:15:38;19.10;99.90
14471;DHT22;7321;50.802;4.336;2023-07-20T00:18:05;19.00;99.90
14471;DHT22;7321;50.802;4.336;2023-07-20T00:20:31;19.10;99.90
14471;DHT22;7321;50.802;4.336;2023-07-20T00:22:57;19.10;99.90
14471;DHT22;7321;50.802;4.336;2023-07-20T00:25:24;19.00;99.90
14471;DHT22;7321;50.802;4.336;2023-07-20T00:27:50;19.10;99.90
14471;DHT22;7321;50.802;4.336;2023-07-20T00:30:16;19.10;99.90
14471;DHT22;7321;50.802;4.336;2023-07-20T00:32:42;19.10;99.90
14471;DHT22;7321;50.802;4.336;2023-07-20T00:35:09;19.10;99.90
14471;DHT22;7321;50.802;4.336;2023-07-20T00:37:35;19.10;99.90
14471;DHT22;7321;50.802;4.336;2023-07-20T00:40:01;19.00;99.90
14471;DHT22;7321;50.802;4.336;2023-07-20T00:42:30;18.90;99.90
14471;DHT22;7321;50.802;4.336;2023-07-20T00:44:56;18.70;99.90
14471;DHT22;7321;50.802;4.336;2023-07-20T00:47:22;18.80;99.90
14471;DHT22;7321;50.802;4.336;2023-07-20T00:49:48;18.80;99.90
14471;DHT22;7321;50.802;4.336;2023-07-20T00:52:15;18.70;99.90
14471;DHT22;7321;50.802;4.336;2023-07-20T00:54:41;18.70;99.90
14471;DHT22;7321;50.802;4.336;2023-07-20T00:57:07;18.70;99.90
14471;DHT22;7321;50.802;4.336;2023-07-20T00:59:37;18.80;99.90
14471;DHT22;7321;50.802;4.336;2023-07-20T01:02:02;18.90;99.90
14471;DHT22;7321;50.802;4.336;2023-07-20T01:04:29;18.90;99.90
14471;DHT22;7321;50.802;4.336;2023-07-20T01:07:03;18.90;99.90
14471;DHT22;7321;50.802;4.336;2023-07-20T01:14:43;18.90;99.90
14471;DHT22;7321;50.802;4.336;2023-07-20T01:17:08;19.00;99.90
14471;DHT22;7321;50.802;4.336;2023-07-20T01:19:34;19.00;99.90
14471;DHT22;7321;50.802;4.336;2023-07-20T01:22:09;18.80;99.90
14471;DHT22;7321;50.802;4.336;2023-07-20T01:25:21;18.80;99.90
14471;DHT22;7321;50.802;4.336;2023-07-20T01:31:23;18.90;99.90
14471;DHT22;7321;50.802;4.336;2023-07-20T01:33:52;18.90;99.90
14471;DHT22;7321;50.802;4.336;2023-07-20T01:36:19;18.70;99.90
14471;DHT22;7321;50.802;4.336;2023-07-20T01:38:47;18.50;99.90
14471;DHT22;7321;50.802;4.336;2023-07-20T01:41:14;18.50;99.90
14471;DHT22;7321;50.802;4.336;2023-07-20T01:43:40;18.60;99.90
14471;DHT22;7321;50.802;4.336;2023-07-20T01:46:07;18.70;99.90
14471;DHT22;7321;50.802;4.336;2023-07-20T01:48:33;18.90;99.90
14471;DHT22;7321;50.802;4.336;2023-07-20T01:50:59;18.80;99.90
14471;DHT22;7321;50.802;4.336;2023-07-20T01:53:25;18.80;99.90
14471;DHT22;7321;50.802;4.336;2023-07-20T01:55:54;18.80;99.90
14471;DHT22;7321;50.802;4.336;2023-07-20T01:58:20;18.80;99.90
14471;DHT22;7321;50.802;4.336;2023-07-20T02:00:46;18.60;99.90
14471;DHT22;7321;50.802;4.336;2023-07-20T02:03:12;18.60;99.90
14471;DHT22;7321;50.802;4.336;2023-07-20T02:05:38;18.70;99.90
14471;DHT22;7321;50.802;4.336;2023-07-20T02:08:04;18.60;99.90
14471;DHT22;7321;50.802;4.336;2023-07-20T02:10:30;18.70;99.90
14471;DHT22;7321;50.802;4.336;2023-07-20T02:12:56;18.50;99.90
14471;DHT22;7321;50.802;4.336;2023-07-20T02:15:22;18.50;99.90
14471;DHT22;7321;50.802;4.336;2023-07-20T02:17:48;18.40;99.90
14471;DHT22;7321;50.802;4.336;2023-07-20T02:20:13;18.30;99.90
14471;DHT22;7321;50.802;4.336;2023-07-20T02:22:39;18.40;99.90
14471;DHT22;7321;50.802;4.336;2023-07-20T02:25:06;18.40;99.90
14471;DHT22;7321;50.802;4.336;2023-07-20T02:27:36;18.30;99.90
14471;DHT22;7321;50.802;4.336;2023-07-20T02:30:03;18.40;99.90
14471;DHT22;7321;50.802;4.336;2023-07-20T02:32:29;18.50;99.90
14471;DHT22;7321;50.802;4.336;2023-07-20T02:34:55;18.50;99.90
14471;DHT22;7321;50.802;4.336;2023-07-20T02:37:21;18.60;99.90
14471;DHT22;7321;50.802;4.336;2023-07-20T02:39:47;18.60;99.90
14471;DHT22;7321;50.802;4.336;2023-07-20T02:42:13;18.40;99.90
14471;DHT22;7321;50.802;4.336;2023-07-20T02:44:38;18.50;99.90
14471;DHT22;7321;50.802;4.336;2023-07-20T02:47:05;18.50;99.90
14471;DHT22;7321;50.802;4.336;2023-07-20T02:49:31;18.50;99.90
14471;DHT22;7321;50.802;4.336;2023-07-20T02:51:57;18.60;99.90
14471;DHT22;7321;50.802;4.336;2023-07-20T02:54:23;18.60;99.90
14471;DHT22;7321;50.802;4.336;2023-07-20T02:56:49;18.60;99.90
14471;DHT22;7321;50.802;4.336;2023-07-20T02:59:15;18.50;99.90
14471;DHT22;7321;50.802;4.336;2023-07-20T03:01:40;18.50;99.90
14471;DHT22;7321;50.802;4.336;2023-07-20T03:04:12;18.40;99.90
14471;DHT22;7321;50.802;4.336;2023-07-20T03:06:41;18.50;99.90
14471;DHT22;7321;50.802;4.336;2023-07-20T03:09:08;18.60;99.90
14471;DHT22;7321;50.802;4.336;2023-07-20T03:11:34;18.40;99.90
14471;DHT22;7321;50.802;4.336;2023-07-20T03:14:00;18.50;99.90
14471;DHT22;7321;50.802;4.336;2023-07-20T03:16:26;18.50;99.90
14471;DHT22;7321;50.802;4.336;2023-07-20T03:18:52;18.50;99.90
14471;DHT22;7321;50.802;4.336;2023-07-20T03:21:18;18.50;99.90
14471;DHT22;7321;50.802;4.336;2023-07-20T03:23:44;18.40;99.90
14471;DHT22;7321;50.802;4.336;2023-07-20T03:26:11;18.20;99.90
14471;DHT22;7321;50.802;4.336;2023-07-20T03:28:47;18.10;99.90
14471;DHT22;7321;50.802;4.336;2023-07-20T03:31:13;18.00;99.90
14471;DHT22;7321;50.802;4.336;2023-07-20T03:33:40;18.00;99.90
14471;DHT22;7321;50.802;4.336;2023-07-20T03:36:06;18.00;99.90
14471;DHT22;7321;50.802;4.336;2023-07-20T03:38:32;18.10;99.90
14471;DHT22;7321;50.802;4.336;2023-07-20T03:41:00;18.20;99.90
14471;DHT22;7321;50.802;4.336;2023-07-20T03:43:27;18.30;99.90
14471;DHT22;7321;50.802;4.336;2023-07-20T03:45:53;18.40;99.90
14471;DHT22;7321;50.802;4.336;2023-07-20T03:48:21;18.30;99.90
14471;DHT22;7321;50.802;4.336;2023-07-20T03:50:49;18.30;99.90
14471;DHT22;7321;50.802;4.336;2023-07-20T03:53:16;18.30;99.90
14471;DHT22;7321;50.802;4.336;2023-07-20T03:55:46;18.30;99.90
14471;DHT22;7321;50.802;4.336;2023-07-20T03:58:12;18.20;99.90
14471;DHT22;7321;50.802;4.336;2023-07-20T04:00:38;18.20;99.90
14471;DHT22;7321;50.802;4.336;2023-07-20T04:03:05;18.20;99.90
14471;DHT22;7321;50.802;4.336;2023-07-20T04:05:31;18.30;99.90
14471;DHT22;7321;50.802;4.336;2023-07-20T04:07:57;18.40;99.90
14471;DHT22;7321;50.802;4.336;2023-07-20T04:10:25;18.50;99.90
14471;DHT22;7321;50.802;4.336;2023-07-20T04:12:51;18.60;99.90
14471;DHT22;7321;50.802;4.336;2023-07-20T04:15:19;18.60;99.90
14471;DHT22;7321;50.802;4.336;2023-07-20T04:17:45;18.50;99.90
14471;DHT22;7321;50.802;4.336;2023-07-20T04:20:11;18.30;99.90
14471;DHT22;7321;50.802;4.336;2023-07-20T04:22:37;18.30;99.90
14471;DHT22;7321;50.802;4.336;2023-07-20T04:25:04;18.20;99.90
14471;DHT22;7321;50.802;4.336;2023-07-20T04:27:30;17.80;99.90
14471;DHT22;7321;50.802;4.336;2023-07-20T04:29:58;17.80;99.90
14471;DHT22;7321;50.802;4.336;2023-07-20T04:32:25;17.90;99.90
14471;DHT22;7321;50.802;4.336;2023-07-20T04:34:51;17.80;99.90
14471;DHT22;7321;50.802;4.336;2023-07-20T04:37:17;17.80;99.90
14471;DHT22;7321;50.802;4.336;2023-07-20T04:39:43;17.90;99.90
14471;DHT22;7321;50.802;4.336;2023-07-20T04:42:09;17.90;99.90
14471;DHT22;7321;50.802;4.336;2023-07-20T04:44:35;18.10;99.90
14471;DHT22;7321;50.802;4.336;2023-07-20T04:47:00;18.10;99.90
14471;DHT22;7321;50.802;4.336;2023-07-20T04:49:26;18.10;99.90
14471;DHT22;7321;50.802;4.336;2023-07-20T04:51:52;18.10;99.90
14471;DHT22;7321;50.802;4.336;2023-07-20T04:54:18;18.00;99.90
14471;DHT22;7321;50.802;4.336;2023-07-20T04:56:44;18.10;99.90
14471;DHT22;7321;50.802;4.336;2023-07-20T04:59:10;18.30;99.90
14471;DHT22;7321;50.802;4.336;2023-07-20T05:01:36;18.40;99.90
14471;DHT22;7321;50.802;4.336;2023-07-20T05:04:02;18.50;99.90
14471;DHT22;7321;50.802;4.336;2023-07-20T05:06:28;18.60;99.90
14471;DHT22;7321;50.802;4.336;2023-07-20T05:08:54;18.70;99.90
14471;DHT22;7321;50.802;4.336;2023-07-20T05:11:20;18.70;99.90
14471;DHT22;7321;50.802;4.336;2023-07-20T05:13:45;18.70;99.90
14471;DHT22;7321;50.802;4.336;2023-07-20T05:16:14;18.60;99.90
14471;DHT22;7321;50.802;4.336;2023-07-20T05:18:40;18.50;99.90
14471;DHT22;7321;50.802;4.336;2023-07-20T05:21:06;18.50;99.90
14471;DHT22;7321;50.802;4.336;2023-07-20T05:23:33;18.50;99.90
14471;DHT22;7321;50.802;4.336;2023-07-20T05:25:59;18.50;99.90
14471;DHT22;7321;50.802;4.336;2023-07-20T05:28:27;18.60;99.90
14471;DHT22;7321;50.802;4.336;2023-07-20T05:30:54;18.70;99.90
14471;DHT22;7321;50.802;4.336;2023-07-20T05:33:21;18.70;99.90
14471;DHT22;7321;50.802;4.336;2023-07-20T05:35:49;18.50;99.90
14471;DHT22;7321;50.802;4.336;2023-07-20T05:38:15;18.50;99.90
14471;DHT22;7321;50.802;4.336;2023-07-20T05:40:41;18.70;99.90
14471;DHT22;7321;50.802;4.336;2023-07-20T05:43:11;18.70;99.90
14471;DHT22;7321;50.802;4.336;2023-07-20T05:45:49;18.80;99.90
14471;DHT22;7321;50.802;4.336;2023-07-20T05:48:15;18.90;99.90
14471;DHT22;7321;50.802;4.336;2023-07-20T05:50:42;18.90;99.90
14471;DHT22;7321;50.802;4.336;2023-07-20T05:53:19;19.00;99.90
14471;DHT22;7321;50.802;4.336;2023-07-20T05:55:51;19.10;99.90
14471;DHT22;7321;50.802;4.336;2023-07-20T05:58:19;19.10;99.90
14471;DHT22;7321;50.802;4.336;2023-07-20T06:00:49;19.10;99.90
14471;DHT22;7321;50.802;4.336;2023-07-20T06:03:16;19.00;99.90
14471;DHT22;7321;50.802;4.336;2023-07-20T06:05:42;19.00;99.90
14471;DHT22;7321;50.802;4.336;2023-07-20T06:08:08;19.10;99.90
14471;DHT22;7321;50.802;4.336;2023-07-20T06:10:34;19.30;99.90
14471;DHT22;7321;50.802;4.336;2023-07-20T06:13:00;19.20;99.90
14471;DHT22;7321;50.802;4.336;2023-07-20T06:15:28;19.20;99.90
14471;DHT22;7321;50.802;4.336;2023-07-20T06:17:55;19.20;99.90
14471;DHT22;7321;50.802;4.336;2023-07-20T06:20:23;19.30;99.90
14471;DHT22;7321;50.802;4.336;2023-07-20T06:22:49;19.40;99.90
14471;DHT22;7321;50.802;4.336;2023-07-20T06:25:15;19.50;99.90
14471;DHT22;7321;50.802;4.336;2023-07-20T06:27:42;19.60;99.90
14471;DHT22;7321;50.802;4.336;2023-07-20T06:30:08;19.70;99.90
14471;DHT22;7321;50.802;4.336;2023-07-20T06:32:34;19.90;99.90
14471;DHT22;7321;50.802;4.336;2023-07-20T06:35:00;19.90;99.90
14471;DHT22;7321;50.802;4.336;2023-07-20T06:37:26;19.90;99.90
14471;DHT22;7321;50.802;4.336;2023-07-20T06:39:52;19.90;99.90
14471;DHT22;7321;50.802;4.336;2023-07-20T06:42:18;20.00;99.90
14471;DHT22;7321;50.802;4.336;2023-07-20T06:44:44;20.10;99.90
14471;DHT22;7321;50.802;4.336;2023-07-20T06:47:11;20.00;99.90
14471;DHT22;7321;50.802;4.336;2023-07-20T06:49:37;20.10;99.90
14471;DHT22;7321;50.802;4.336;2023-07-20T06:52:03;20.10;99.90
14471;DHT22;7321;50.802;4.336;2023-07-20T06:54:29;20.10;99.90
14471;DHT22;7321;50.802;4.336;2023-07-20T06:56:55;20.20;99.90
14471;DHT22;7321;50.802;4.336;2023-07-20T06:59:21;20.30;99.90
14471;DHT22;7321;50.802;4.336;2023-07-20T07:01:48;20.40;99.90
14471;DHT22;7321;50.802;4.336;2023-07-20T07:04:13;20.50;99.90
14471;DHT22;7321;50.802;4.336;2023-07-20T07:06:39;20.60;99.90
14471;DHT22;7321;50.802;4.336;2023-07-20T07:09:05;20.60;99.90
14471;DHT22;7321;50.802;4.336;2023-07-20T07:11:31;20.70;99.90
14471;DHT22;7321;50.802;4.336;2023-07-20T07:13:57;20.70;99.90
14471;DHT22;7321;50.802;4.336;2023-07-20T07:16:23;20.70;99.90
14471;DHT22;7321;50.802;4.336;2023-07-20T07:18:51;20.70;99.90
14471;DHT22;7321;50.802;4.336;2023-07-20T07:21:17;20.80;99.90
14471;DHT22;7321;50.802;4.336;2023-07-20T07:23:43;20.70;99.90
14471;DHT22;7321;50.802;4.336;2023-07-20T07:26:09;20.80;99.90
14471;DHT22;7321;50.802;4.336;2023-07-20T07:28:36;20.80;99.90
14471;DHT22;7321;50.802;4.336;2023-07-20T07:31:04;20.90;99.90
14471;DHT22;7321;50.802;4.336;2023-07-20T07:33:31;20.80;99.90
14471;DHT22;7321;50.802;4.336;2023-07-20T07:35:57;20.70;99.90
14471;DHT22;7321;50.802;4.336;2023-07-20T07:38:23;20.80;99.90
14471;DHT22;7321;50.802;4.336;2023-07-20T07:40:49;20.90;99.90
14471;DHT22;7321;50.802;4.336;2023-07-20T07:43:15;21.20;99.90
14471;DHT22;7321;50.802;4.336;2023-07-20T07:45:41;21.30;99.90
14471;DHT22;7321;50.802;4.336;2023-07-20T07:48:07;21.30;99.90
14471;DHT22;7321;50.802;4.336;2023-07-20T07:50:34;21.60;99.90
14471;DHT22;7321;50.802;4.336;2023-07-20T07:53:00;21.70;99.90
14471;DHT22;7321;50.802;4.336;2023-07-20T07:55:26;21.50;99.90
14471;DHT22;7321;50.802;4.336;2023-07-20T07:57:52;21.60;99.90
14471;DHT22;7321;50.802;4.336;2023-07-20T08:00:18;21.70;99.90
14471;DHT22;7321;50.802;4.336;2023-07-20T08:02:45;21.60;99.90
14471;DHT22;7321;50.802;4.336;2023-07-20T08:05:12;21.50;99.90
14471;DHT22;7321;50.802;4.336;2023-07-20T08:07:38;21.70;99.90
14471;DHT22;7321;50.802;4.336;2023-07-20T08:10:04;21.60;99.90
14471;DHT22;7321;50.802;4.336;2023-07-20T08:12:31;21.70;99.90
14471;DHT22;7321;50.802;4.336;2023-07-20T08:14:57;21.80;99.90
14471;DHT22;7321;50.802;4.336;2023-07-20T08:17:25;22.00;99.90
14471;DHT22;7321;50.802;4.336;2023-07-20T08:19:51;22.20;99.90
14471;DHT22;7321;50.802;4.336;2023-07-20T08:22:17;22.40;99.90
14471;DHT22;7321;50.802;4.336;2023-07-20T08:24:44;22.70;99.90
14471;DHT22;7321;50.802;4.336;2023-07-20T08:27:09;22.50;99.90
14471;DHT22;7321;50.802;4.336;2023-07-20T08:29:36;22.50;99.90
14471;DHT22;7321;50.802;4.336;2023-07-20T08:32:03;22.30;99.90
14471;DHT22;7321;50.802;4.336;2023-07-20T08:34:30;22.40;99.90
14471;DHT22;7321;50.802;4.336;2023-07-20T08:36:56;22.60;99.90
14471;DHT22;7321;50.802;4.336;2023-07-20T08:39:23;22.60;99.90
14471;DHT22;7321;50.802;4.336;2023-07-20T08:41:49;22.60;99.90
14471;DHT22;7321;50.802;4.336;2023-07-20T08:44:15;22.60;99.90
14471;DHT22;7321;50.802;4.336;2023-07-20T08:46:42;22.90;99.90
14471;DHT22;7321;50.802;4.336;2023-07-20T08:49:08;23.10;99.90
14471;DHT22;7321;50.802;4.336;2023-07-20T08:51:35;23.10;99.90
14471;DHT22;7321;50.802;4.336;2023-07-20T08:54:01;23.20;99.90
14471;DHT22;7321;50.802;4.336;2023-07-20T08:56:27;23.00;99.90
14471;DHT22;7321;50.802;4.336;2023-07-20T08:58:55;23.10;99.90
14471;DHT22;7321;50.802;4.336;2023-07-20T09:01:22;23.30;99.90
14471;DHT22;7321;50.802;4.336;2023-07-20T09:03:49;23.50;99.90
14471;DHT22;7321;50.802;4.336;2023-07-20T09:06:15;23.70;99.90
14471;DHT22;7321;50.802;4.336;2023-07-20T09:08:41;23.80;99.90
14471;DHT22;7321;50.802;4.336;2023-07-20T09:11:09;23.70;99.90
14471;DHT22;7321;50.802;4.336;2023-07-20T09:13:35;23.70;99.90
14471;DHT22;7321;50.802;4.336;2023-07-20T09:16:01;23.80;99.90
14471;DHT22;7321;50.802;4.336;2023-07-20T09:18:31;23.60;99.90
14471;DHT22;7321;50.802;4.336;2023-07-20T09:21:05;23.30;99.90
14471;DHT22;7321;50.802;4.336;2023-07-20T09:23:38;23.50;99.90
14471;DHT22;7321;50.802;4.336;2023-07-20T09:26:10;23.50;99.90
14471;DHT22;7321;50.802;4.336;2023-07-20T09:28:44;23.60;99.90
14471;DHT22;7321;50.802;4.336;2023-07-20T09:31:16;23.70;99.90
14471;DHT22;7321;50.802;4.336;2023-07-20T09:33:43;24.00;99.90
14471;DHT22;7321;50.802;4.336;2023-07-20T09:36:12;23.90;99.90
14471;DHT22;7321;50.802;4.336;2023-07-20T09:38:39;24.30;99.90
14471;DHT22;7321;50.802;4.336;2023-07-20T09:41:05;24.50;99.90
14471;DHT22;7321;50.802;4.336;2023-07-20T09:43:33;24.50;99.90
14471;DHT22;7321;50.802;4.336;2023-07-20T09:45:59;24.00;99.90
14471;DHT22;7321;50.802;4.336;2023-07-20T09:48:26;23.80;99.90
14471;DHT22;7321;50.802;4.336;2023-07-20T09:50:52;23.80;99.90
14471;DHT22;7321;50.802;4.336;2023-07-20T09:53:19;23.80;99.90
14471;DHT22;7321;50.802;4.336;2023-07-20T09:55:46;23.70;99.90
14471;DHT22;7321;50.802;4.336;2023-07-20T09:58:13;23.80;99.90
14471;DHT22;7321;50.802;4.336;2023-07-20T10:00:41;23.90;99.90
14471;DHT22;7321;50.802;4.336;2023-07-20T10:03:16;24.20;99.90
14471;DHT22;7321;50.802;4.336;2023-07-20T10:05:47;24.40;99.90
14471;DHT22;7321;50.802;4.336;2023-07-20T10:08:16;24.50;99.90
14471;DHT22;7321;50.802;4.336;2023-07-20T10:10:42;24.30;99.90
14471;DHT22;7321;50.802;4.336;2023-07-20T10:13:29;24.30;99.90
14471;DHT22;7321;50.802;4.336;2023-07-20T10:16:11;24.60;99.90
14471;DHT22;7321;50.802;4.336;2023-07-20T10:22:03;25.00;99.90
14471;DHT22;7321;50.802;4.336;2023-07-20T10:24:34;25.20;99.90
14471;DHT22;7321;50.802;4.336;2023-07-20T10:27:01;25.30;99.90
14471;DHT22;7321;50.802;4.336;2023-07-20T10:29:27;25.20;99.90
14471;DHT22;7321;50.802;4.336;2023-07-20T10:31:55;25.50;99.90
14471;DHT22;7321;50.802;4.336;2023-07-20T10:34:22;25.60;99.90
14471;DHT22;7321;50.802;4.336;2023-07-20T10:36:48;25.80;99.90
14471;DHT22;7321;50.802;4.336;2023-07-20T10:39:28;25.90;99.90
14471;DHT22;7321;50.802;4.336;2023-07-20T10:42:09;25.90;99.90
14471;DHT22;7321;50.802;4.336;2023-07-20T10:44:39;26.10;99.90
14471;DHT22;7321;50.802;4.336;2023-07-20T10:47:12;26.00;99.90
14471;DHT22;7321;50.802;4.336;2023-07-20T10:49:57;25.90;99.90
14471;DHT22;7321;50.802;4.336;2023-07-20T10:52:24;26.10;99.90
14471;DHT22;7321;50.802;4.336;2023-07-20T10:54:49;26.10;99.90
14471;DHT22;7321;50.802;4.336;2023-07-20T10:57:29;26.10;99.90
14471;DHT22;7321;50.802;4.336;2023-07-20T11:00:10;25.60;99.90
14471;DHT22;7321;50.802;4.336;2023-07-20T11:02:44;25.60;99.90
14471;DHT22;7321;50.802;4.336;2023-07-20T11:05:36;25.60;99.90
14471;DHT22;7321;50.802;4.336;2023-07-20T11:08:04;26.00;99.90
14471;DHT22;7321;50.802;4.336;2023-07-20T11:10:30;25.80;99.90
14471;DHT22;7321;50.802;4.336;2023-07-20T11:13:17;25.60;99.90
14471;DHT22;7321;50.802;4.336;2023-07-20T11:18:13;25.60;99.90
14471;DHT22;7321;50.802;4.336;2023-07-20T11:20:40;25.70;99.90
14471;DHT22;7321;50.802;4.336;2023-07-20T11:23:06;25.90;99.90
14471;DHT22;7321;50.802;4.336;2023-07-20T11:25:39;25.90;99.90
14471;DHT22;7321;50.802;4.336;2023-07-20T11:28:09;25.70;99.90
14471;DHT22;7321;50.802;4.336;2023-07-20T11:30:37;25.70;99.90
14471;DHT22;7321;50.802;4.336;2023-07-20T11:33:04;25.70;99.90
14471;DHT22;7321;50.802;4.336;2023-07-20T11:35:34;25.80;99.90
14471;DHT22;7321;50.802;4.336;2023-07-20T11:38:01;26.00;99.90
14471;DHT22;7321;50.802;4.336;2023-07-20T11:40:27;26.20;99.90
14471;DHT22;7321;50.802;4.336;2023-07-20T11:42:56;26.10;99.90
14471;DHT22;7321;50.802;4.336;2023-07-20T11:45:22;26.00;99.90
14471;DHT22;7321;50.802;4.336;2023-07-20T11:47:47;25.60;99.90
14471;DHT22;7321;50.802;4.336;2023-07-20T11:50:13;25.70;99.90
14471;DHT22;7321;50.802;4.336;2023-07-20T11:52:40;25.60;99.90
14471;DHT22;7321;50.802;4.336;2023-07-20T11:55:07;25.60;99.90
14471;DHT22;7321;50.802;4.336;2023-07-20T11:57:33;25.70;99.90
14471;DHT22;7321;50.802;4.336;2023-07-20T12:00:03;25.70;99.90
14471;DHT22;7321;50.802;4.336;2023-07-20T12:02:37;25.90;99.90
14471;DHT22;7321;50.802;4.336;2023-07-20T12:05:05;26.10;99.90
14471;DHT22;7321;50.802;4.336;2023-07-20T12:07:35;26.00;99.90
14471;DHT22;7321;50.802;4.336;2023-07-20T12:12:34;26.00;99.90
14471;DHT22;7321;50.802;4.336;2023-07-20T12:15:17;26.10;99.90
14471;DHT22;7321;50.802;4.336;2023-07-20T12:17:48;26.00;99.90
14471;DHT22;7321;50.802;4.336;2023-07-20T12:20:28;25.90;99.90
14471;DHT22;7321;50.802;4.336;2023-07-20T12:23:05;26.30;99.90
14471;DHT22;7321;50.802;4.336;2023-07-20T12:28:08;26.40;99.90
14471;DHT22;7321;50.802;4.336;2023-07-20T12:30:34;26.70;99.90
14471;DHT22;7321;50.802;4.336;2023-07-20T12:33:00;26.70;99.90
14471;DHT22;7321;50.802;4.336;2023-07-20T12:35:26;26.20;99.90
14471;DHT22;7321;50.802;4.336;2023-07-20T12:37:52;26.00;99.90
14471;DHT22;7321;50.802;4.336;2023-07-20T12:40:19;26.20;99.90
14471;DHT22;7321;50.802;4.336;2023-07-20T12:42:45;26.20;99.90
14471;DHT22;7321;50.802;4.336;2023-07-20T12:45:11;26.20;99.90
14471;DHT22;7321;50.802;4.336;2023-07-20T12:47:37;26.00;99.90
14471;DHT22;7321;50.802;4.336;2023-07-20T12:50:03;26.10;99.90
14471;DHT22;7321;50.802;4.336;2023-07-20T12:52:32;26.10;99.90
14471;DHT22;7321;50.802;4.336;2023-07-20T12:54:57;26.10;99.90
14471;DHT22;7321;50.802;4.336;2023-07-20T12:57:24;25.80;99.90
14471;DHT22;7321;50.802;4.336;2023-07-20T12:59:50;25.80;99.90
14471;DHT22;7321;50.802;4.336;2023-07-20T13:02:16;25.60;99.90
14471;DHT22;7321;50.802;4.336;2023-07-20T13:04:42;25.50;99.90
14471;DHT22;7321;50.802;4.336;2023-07-20T13:07:10;25.40;99.90
14471;DHT22;7321;50.802;4.336;2023-07-20T13:09:37;25.00;99.90
14471;DHT22;7321;50.802;4.336;2023-07-20T13:12:03;24.90;99.90
14471;DHT22;7321;50.802;4.336;2023-07-20T13:14:29;24.70;99.90
14471;DHT22;7321;50.802;4.336;2023-07-20T13:16:58;24.10;99.90
14471;DHT22;7321;50.802;4.336;2023-07-20T13:19:23;23.90;99.90
14471;DHT22;7321;50.802;4.336;2023-07-20T13:21:50;23.90;99.90
14471;DHT22;7321;50.802;4.336;2023-07-20T13:24:16;23.50;99.90
14471;DHT22;7321;50.802;4.336;2023-07-20T13:26:42;23.60;99.90
14471;DHT22;7321;50.802;4.336;2023-07-20T13:29:08;23.60;99.90
14471;DHT22;7321;50.802;4.336;2023-07-20T13:31:34;23.80;99.90
14471;DHT22;7321;50.802;4.336;2023-07-20T13:34:00;23.80;99.90
14471;DHT22;7321;50.802;4.336;2023-07-20T13:36:26;23.40;99.90
14471;DHT22;7321;50.802;4.336;2023-07-20T13:38:51;23.50;99.90
14471;DHT22;7321;50.802;4.336;2023-07-20T13:41:18;23.40;99.90
14471;DHT22;7321;50.802;4.336;2023-07-20T13:43:44;23.10;99.90
14471;DHT22;7321;50.802;4.336;2023-07-20T13:46:10;22.90;99.90
14471;DHT22;7321;50.802;4.336;2023-07-20T13:48:35;23.10;99.90
14471;DHT22;7321;50.802;4.336;2023-07-20T13:51:01;23.40;99.90
14471;DHT22;7321;50.802;4.336;2023-07-20T13:53:27;23.20;99.90
14471;DHT22;7321;50.802;4.336;2023-07-20T13:55:53;23.00;99.90
14471;DHT22;7321;50.802;4.336;2023-07-20T13:58:19;22.90;99.90
14471;DHT22;7321;50.802;4.336;2023-07-20T14:00:45;22.90;99.90
14471;DHT22;7321;50.802;4.336;2023-07-20T14:03:11;22.90;99.90
14471;DHT22;7321;50.802;4.336;2023-07-20T14:05:37;23.00;99.90
14471;DHT22;7321;50.802;4.336;2023-07-20T14:08:03;22.90;99.90
14471;DHT22;7321;50.802;4.336;2023-07-20T14:10:32;22.60;99.90
14471;DHT22;7321;50.802;4.336;2023-07-20T14:12:57;22.50;99.90
14471;DHT22;7321;50.802;4.336;2023-07-20T14:15:23;22.60;99.90
14471;DHT22;7321;50.802;4.336;2023-07-20T14:17:49;23.10;99.90
14471;DHT22;7321;50.802;4.336;2023-07-20T14:20:15;23.40;99.90
14471;DHT22;7321;50.802;4.336;2023-07-20T14:22:40;23.30;99.90
14471;DHT22;7321;50.802;4.336;2023-07-20T14:25:07;23.30;99.90
14471;DHT22;7321;50.802;4.336;2023-07-20T14:27:33;23.20;99.90
14471;DHT22;7321;50.802;4.336;2023-07-20T14:30:00;22.90;99.90
14471;DHT22;7321;50.802;4.336;2023-07-20T14:32:26;23.10;99.90
14471;DHT22;7321;50.802;4.336;2023-07-20T14:34:53;23.00;99.90
14471;DHT22;7321;50.802;4.336;2023-07-20T14:37:19;22.80;99.90
14471;DHT22;7321;50.802;4.336;2023-07-20T14:39:45;23.20;99.90
14471;DHT22;7321;50.802;4.336;2023-07-20T14:42:11;23.40;99.90
14471;DHT22;7321;50.802;4.336;2023-07-20T14:44:36;23.50;99.90
14471;DHT22;7321;50.802;4.336;2023-07-20T14:47:02;23.70;99.90
14471;DHT22;7321;50.802;4.336;2023-07-20T14:49:28;23.80;99.90
14471;DHT22;7321;50.802;4.336;2023-07-20T14:51:54;24.00;99.90
14471;DHT22;7321;50.802;4.336;2023-07-20T14:54:21;24.10;99.90
14471;DHT22;7321;50.802;4.336;2023-07-20T14:56:50;24.10;99.90
14471;DHT22;7321;50.802;4.336;2023-07-20T14:59:18;24.00;99.90
14471;DHT22;7321;50.802;4.336;2023-07-20T15:01:44;23.70;99.90
14471;DHT22;7321;50.802;4.336;2023-07-20T15:04:16;23.70;99.90
14471;DHT22;7321;50.802;4.336;2023-07-20T15:06:45;23.60;99.90
14471;DHT22;7321;50.802;4.336;2023-07-20T15:09:11;23.50;99.90
14471;DHT22;7321;50.802;4.336;2023-07-20T15:11:37;23.60;99.90
14471;DHT22;7321;50.802;4.336;2023-07-20T15:14:03;23.60;99.90
14471;DHT22;7321;50.802;4.336;2023-07-20T15:16:28;23.40;99.90
14471;DHT22;7321;50.802;4.336;2023-07-20T15:18:54;22.90;99.90
14471;DHT22;7321;50.802;4.336;2023-07-20T15:21:20;22.90;99.90
14471;DHT22;7321;50.802;4.336;2023-07-20T15:23:49;23.20;99.90
14471;DHT22;7321;50.802;4.336;2023-07-20T15:26:15;23.20;99.90
14471;DHT22;7321;50.802;4.336;2023-07-20T15:28:41;23.30;99.90
14471;DHT22;7321;50.802;4.336;2023-07-20T15:31:07;23.50;99.90
14471;DHT22;7321;50.802;4.336;2023-07-20T15:33:33;23.60;99.90
14471;DHT22;7321;50.802;4.336;2023-07-20T15:36:02;23.40;99.90
14471;DHT22;7321;50.802;4.336;2023-07-20T15:38:31;23.60;99.90
14471;DHT22;7321;50.802;4.336;2023-07-20T15:40:57;23.00;99.90
14471;DHT22;7321;50.802;4.336;2023-07-20T15:43:26;22.40;99.90
14471;DHT22;7321;50.802;4.336;2023-07-20T15:48:44;20.60;99.90
14471;DHT22;7321;50.802;4.336;2023-07-20T15:51:14;19.10;99.90
14471;DHT22;7321;50.802;4.336;2023-07-20T15:53:43;18.40;99.90
14471;DHT22;7321;50.802;4.336;2023-07-20T15:56:09;17.90;99.90
14471;DHT22;7321;50.802;4.336;2023-07-20T15:58:35;17.80;99.90
14471;DHT22;7321;50.802;4.336;2023-07-20T16:01:01;17.60;99.90
14471;DHT22;7321;50.802;4.336;2023-07-20T16:03:29;17.60;99.90
14471;DHT22;7321;50.802;4.336;2023-07-20T16:05:55;17.50;99.90
14471;DHT22;7321;50.802;4.336;2023-07-20T16:08:21;17.30;99.90